createdAt,value
2018-05-25T00:02:12.614Z,38.70
2018-05-25T00:04:40.843Z,38.23
2018-05-25T00:07:09.076Z,39.60
2018-05-25T00:09:37.334Z,42.17
2018-05-25T00:12:05.567Z,39.27
2018-05-25T00:14:33.807Z,41.20
2018-05-25T00:17:02.063Z,39.43
2018-05-25T00:19:30.306Z,41.80
2018-05-25T00:21:59.307Z,40.50
2018-05-25T00:24:27.569Z,38.70
2018-05-25T00:26:55.794Z,40.30
2018-05-25T00:29:24.031Z,39.90
2018-05-25T00:31:53.054Z,38.10
2018-05-25T00:34:21.296Z,40.53
2018-05-25T00:36:49.522Z,37.67
2018-05-25T00:39:17.819Z,37.07
2018-05-25T00:41:46.060Z,37.10
2018-05-25T00:44:14.292Z,36.83
2018-05-25T00:46:42.544Z,38.10
2018-05-25T00:49:10.776Z,39.20
2018-05-25T00:51:39.955Z,39.50
2018-05-25T00:54:09.018Z,44.30
2018-05-25T00:56:37.260Z,44.40
2018-05-25T00:59:05.497Z,41.50
2018-05-25T01:01:33.768Z,40.07
2018-05-25T01:04:01.995Z,38.03
2018-05-25T01:06:30.227Z,35.73
2018-05-25T01:08:59.255Z,38.63
2018-05-25T01:11:27.489Z,41.13
2018-05-25T01:13:55.731Z,39.53
2018-05-25T01:16:23.983Z,41.17
2018-05-25T01:18:52.216Z,39.00
2018-05-25T01:21:20.219Z,39.53
2018-05-25T01:23:48.487Z,43.97
2018-05-25T01:26:16.904Z,42.33
2018-05-25T01:28:45.147Z,43.63
2018-05-25T01:31:13.394Z,40.50
2018-05-25T01:33:41.621Z,34.03
2018-05-25T01:36:09.871Z,32.70
2018-05-25T01:38:38.111Z,30.83
2018-05-25T01:41:06.338Z,30.70
2018-05-25T01:43:34.612Z,29.37
2018-05-25T01:46:02.850Z,30.07
2018-05-25T01:48:31.834Z,24.70
2018-05-25T01:51:00.085Z,25.77
2018-05-25T01:53:28.316Z,24.63
2018-05-25T01:55:57.310Z,27.17
2018-05-25T01:58:25.487Z,23.97
2018-05-25T02:00:53.715Z,22.17
2018-05-25T02:03:21.949Z,23.53
2018-05-25T02:05:50.212Z,24.47
2018-05-25T02:08:18.447Z,24.30
2018-05-25T02:10:46.683Z,25.20
2018-05-25T02:13:14.935Z,24.63
2018-05-25T02:15:43.927Z,26.70
2018-05-25T02:18:12.155Z,27.53
2018-05-25T02:20:40.403Z,26.60
2018-05-25T02:23:08.637Z,26.30
2018-05-25T02:25:36.875Z,30.63
2018-05-25T02:28:05.147Z,32.60
2018-05-25T02:30:33.379Z,31.53
2018-05-25T02:33:07.368Z,32.97
2018-05-25T02:35:35.599Z,34.90
2018-05-25T02:38:03.828Z,35.77
2018-05-25T02:40:32.097Z,35.30
2018-05-25T02:43:00.333Z,36.13
2018-05-25T02:45:28.556Z,35.33
2018-05-25T02:47:56.831Z,35.07
2018-05-25T02:50:25.070Z,43.93
2018-05-25T02:52:53.299Z,45.37
2018-05-25T02:55:22.328Z,45.43
2018-05-25T02:57:50.571Z,48.83
2018-05-25T03:00:18.807Z,32.43
2018-05-25T03:02:47.055Z,32.33
2018-05-25T03:05:15.295Z,34.23
2018-05-25T03:07:44.301Z,34.17
2018-05-25T03:10:12.551Z,32.40
2018-05-25T03:12:40.791Z,23.60
2018-05-25T03:15:09.027Z,29.40
2018-05-25T03:17:38.040Z,29.83
2018-05-25T03:20:06.275Z,28.83
2018-05-25T03:22:34.571Z,28.03
2018-05-25T03:25:02.811Z,26.67
2018-05-25T03:27:31.043Z,24.77
2018-05-25T03:29:59.315Z,27.47
2018-05-25T03:32:27.552Z,23.27
2018-05-25T03:34:55.787Z,22.33
2018-05-25T03:37:24.031Z,64.43
2018-05-25T03:39:52.263Z,30.20
2018-05-25T03:42:20.503Z,28.30
2018-05-25T03:44:48.732Z,27.37
2018-05-25T03:47:17.154Z,26.60
2018-05-25T03:49:45.389Z,28.27
2018-05-25T03:52:13.620Z,26.83
2018-05-25T03:54:41.874Z,27.43
2018-05-25T03:57:10.115Z,26.20
2018-05-25T03:59:55.883Z,28.20
2018-05-25T04:02:24.118Z,28.33
2018-05-25T04:04:52.363Z,27.73
2018-05-25T04:07:20.587Z,27.70
2018-05-25T04:09:48.827Z,29.40
2018-05-25T04:12:17.062Z,31.67
2018-05-25T04:14:45.327Z,28.17
2018-05-25T04:17:13.608Z,24.53
2018-05-25T04:19:42.555Z,21.47
2018-05-25T04:22:10.811Z,20.97
2018-05-25T04:24:39.047Z,20.10
2018-05-25T04:27:07.288Z,19.67
2018-05-25T04:29:35.559Z,19.30
2018-05-25T04:32:03.785Z,17.60
2018-05-25T04:34:32.023Z,16.20
2018-05-25T04:37:00.309Z,14.40
2018-05-25T04:39:28.553Z,15.40
2018-05-25T04:41:56.797Z,12.87
2018-05-25T04:44:25.055Z,11.93
2018-05-25T04:46:53.275Z,12.67
2018-05-25T04:49:22.271Z,11.47
2018-05-25T04:51:50.534Z,11.37
2018-05-25T04:54:18.762Z,10.27
2018-05-25T04:56:46.982Z,11.27
2018-05-25T04:59:15.215Z,10.40
2018-05-25T05:01:43.444Z,9.57
2018-05-25T05:04:11.856Z,9.37
2018-05-25T05:06:40.080Z,8.80
2018-05-25T05:09:08.295Z,9.93
2018-05-25T05:11:36.588Z,9.27
2018-05-25T05:14:04.768Z,9.70
2018-05-25T05:16:32.990Z,8.53
2018-05-25T05:19:01.252Z,7.37
2018-05-25T05:21:29.467Z,9.13
2018-05-25T05:23:57.695Z,8.23
2018-05-25T05:26:25.939Z,9.70
2018-05-25T05:28:54.166Z,8.10
2018-05-25T05:31:22.388Z,9.20
2018-05-25T05:33:50.654Z,9.33
2018-05-25T05:36:18.878Z,10.23
2018-05-25T05:38:47.107Z,10.00
2018-05-25T05:41:15.363Z,9.30
2018-05-25T05:43:44.355Z,9.57
2018-05-25T05:46:12.575Z,9.60
2018-05-25T05:48:40.830Z,8.97
2018-05-25T05:51:09.050Z,8.30
2018-05-25T05:53:37.271Z,8.83
2018-05-25T05:56:05.540Z,8.23
2018-05-25T05:58:33.759Z,8.77
2018-05-25T06:01:01.983Z,7.70
2018-05-25T06:03:30.979Z,7.90
2018-05-25T06:05:59.197Z,6.97
2018-05-25T06:08:27.430Z,7.03
2018-05-25T06:10:56.411Z,6.90
2018-05-25T06:13:24.655Z,6.60
2018-05-25T06:15:52.887Z,8.07
2018-05-25T06:18:21.879Z,7.23
2018-05-25T06:20:50.198Z,7.00
2018-05-25T06:23:18.422Z,7.57
2018-05-25T06:25:46.643Z,7.00
2018-05-25T06:28:14.900Z,6.47
2018-05-25T06:30:43.124Z,7.43
2018-05-25T06:33:11.343Z,7.57
2018-05-25T06:35:40.362Z,7.27
2018-05-25T06:38:08.587Z,6.90
2018-05-25T06:40:36.807Z,7.13
2018-05-25T06:43:05.062Z,7.37
2018-05-25T06:45:33.283Z,8.07
2018-05-25T06:48:01.507Z,7.47
2018-05-25T06:50:30.523Z,6.20
2018-05-25T06:52:58.742Z,6.50
2018-05-25T06:55:26.963Z,7.50
2018-05-25T06:57:55.232Z,8.60
2018-05-25T07:00:23.438Z,6.83
2018-05-25T07:02:51.658Z,8.00
2018-05-25T07:05:19.930Z,7.57
2018-05-25T07:07:48.151Z,6.80
2018-05-25T07:10:16.372Z,6.90
2018-05-25T07:12:44.636Z,7.53
2018-05-25T07:15:12.863Z,7.53
2018-05-25T07:17:41.078Z,6.80
2018-05-25T07:20:09.324Z,7.00
2018-05-25T07:22:37.542Z,7.03
2018-05-25T07:25:05.767Z,6.73
2018-05-25T07:27:34.027Z,7.43
2018-05-25T07:30:02.248Z,7.60
2018-05-25T07:32:30.464Z,6.67
2018-05-25T07:34:58.723Z,6.00
2018-05-25T07:37:26.951Z,7.20
2018-05-25T07:39:55.175Z,6.60
2018-05-25T07:42:23.415Z,7.00
2018-05-25T07:44:51.636Z,6.17
2018-05-25T07:47:19.863Z,7.73
2018-05-25T07:49:48.106Z,7.10
2018-05-25T07:52:16.319Z,6.40
2018-05-25T07:54:45.309Z,7.30
2018-05-25T07:57:13.551Z,7.63
2018-05-25T07:59:41.764Z,6.93
2018-05-25T08:02:10.004Z,7.73
2018-05-25T08:04:39.019Z,7.10
2018-05-25T08:07:07.243Z,6.60
2018-05-25T08:09:35.476Z,7.57
2018-05-25T08:12:03.742Z,7.30
2018-05-25T08:14:32.738Z,6.33
2018-05-25T08:17:00.954Z,7.30
2018-05-25T08:19:29.179Z,8.00
2018-05-25T08:21:58.169Z,8.13
2018-05-25T08:24:26.403Z,8.53
2018-05-25T08:26:54.667Z,7.33
2018-05-25T08:29:22.890Z,7.53
2018-05-25T08:31:51.874Z,6.93
2018-05-25T08:34:20.131Z,7.00
2018-05-25T08:36:48.355Z,8.50
2018-05-25T08:39:16.578Z,6.87
2018-05-25T08:41:44.835Z,7.20
2018-05-25T08:44:13.051Z,6.80
2018-05-25T08:46:41.267Z,6.70
2018-05-25T08:49:09.531Z,6.70
2018-05-25T08:51:37.746Z,9.20
2018-05-25T08:54:05.967Z,6.30
2018-05-25T08:56:34.212Z,7.40
2018-05-25T08:59:02.427Z,5.73
2018-05-25T09:01:31.429Z,6.50
2018-05-25T09:03:59.647Z,6.77
2018-05-25T09:06:27.869Z,6.67
2018-05-25T09:08:56.850Z,6.90
2018-05-25T09:11:25.097Z,6.80
2018-05-25T09:13:53.314Z,6.20
2018-05-25T09:16:22.300Z,6.10
2018-05-25T09:18:50.590Z,7.20
2018-05-25T09:21:18.775Z,6.50
2018-05-25T09:23:46.993Z,7.80
2018-05-25T09:26:15.227Z,7.87
2018-05-25T09:28:43.448Z,6.97
2018-05-25T09:31:11.679Z,7.30
2018-05-25T09:33:39.930Z,7.30
2018-05-25T09:36:08.911Z,7.20
2018-05-25T09:38:37.135Z,6.93
2018-05-25T09:41:05.390Z,6.60
2018-05-25T09:43:33.611Z,6.20
2018-05-25T09:46:01.836Z,7.23
2018-05-25T09:48:30.078Z,7.23
2018-05-25T09:50:58.299Z,6.77
2018-05-25T09:53:26.518Z,7.50
2018-05-25T09:55:54.751Z,7.43
2018-05-25T09:58:22.971Z,6.77
2018-05-25T10:00:51.191Z,7.30
2018-05-25T10:03:19.442Z,7.67
2018-05-25T10:05:47.664Z,6.87
2018-05-25T10:08:15.894Z,6.77
2018-05-25T10:10:44.158Z,7.30
2018-05-25T10:13:12.370Z,6.03
2018-05-25T10:15:40.599Z,5.77
2018-05-25T10:18:08.863Z,5.70
2018-05-25T10:20:37.079Z,6.00
2018-05-25T10:23:05.295Z,5.50
2018-05-25T10:25:33.546Z,5.13
2018-05-25T10:28:01.771Z,5.77
2018-05-25T10:30:29.987Z,6.73
2018-05-25T10:32:58.219Z,6.20
2018-05-25T10:35:26.440Z,6.60
2018-05-25T10:37:55.464Z,5.70
2018-05-25T10:40:23.675Z,5.70
2018-05-25T10:42:51.899Z,9.33
2018-05-25T10:45:20.165Z,7.60
2018-05-25T10:47:49.159Z,7.27
2018-05-25T10:50:17.375Z,7.30
2018-05-25T10:52:45.652Z,7.53
2018-05-25T10:55:13.863Z,8.70
2018-05-25T10:57:42.092Z,7.03
2018-05-25T11:00:10.398Z,6.00
2018-05-25T11:02:38.632Z,6.77
2018-05-25T11:05:06.857Z,7.00
2018-05-25T11:10:32.804Z,6.70
2018-05-25T11:13:00.979Z,6.23
2018-05-25T11:15:29.987Z,5.90
2018-05-25T11:17:58.243Z,5.30
2018-05-25T11:20:26.484Z,6.67
2018-05-25T11:22:54.726Z,5.20
2018-05-25T11:25:22.983Z,5.30
2018-05-25T11:27:51.214Z,5.87
2018-05-25T11:30:19.471Z,5.90
2018-05-25T11:32:47.731Z,6.27
2018-05-25T11:35:16.735Z,5.93
2018-05-25T11:37:44.963Z,5.10
2018-05-25T11:40:13.226Z,5.73
2018-05-25T11:42:41.490Z,5.53
2018-05-25T11:45:09.713Z,6.00
2018-05-25T11:47:37.978Z,5.00
2018-05-25T11:50:06.203Z,4.40
2018-05-25T11:52:34.542Z,3.40
2018-05-25T11:55:02.815Z,3.97
2018-05-25T11:57:31.073Z,3.80
2018-05-25T11:59:59.243Z,3.87
2018-05-25T12:02:27.504Z,3.80
2018-05-25T12:04:55.725Z,3.60
2018-05-25T12:07:23.943Z,4.10
2018-05-25T12:09:52.559Z,3.47
2018-05-25T12:12:20.779Z,3.70
2018-05-25T12:14:49.762Z,4.30
2018-05-25T12:17:18.015Z,4.47
2018-05-25T12:19:46.240Z,3.93
2018-05-25T12:22:15.223Z,3.60
2018-05-25T12:24:43.467Z,4.20
2018-05-25T12:27:11.686Z,4.07
2018-05-25T12:29:39.909Z,4.87
2018-05-25T12:32:08.471Z,4.73
2018-05-25T12:34:36.695Z,4.30
2018-05-25T12:37:05.678Z,4.70
2018-05-25T12:39:33.919Z,4.37
2018-05-25T12:42:02.143Z,4.00
2018-05-25T12:44:37.722Z,4.53
2018-05-25T12:47:05.937Z,4.73
2018-05-25T12:49:34.161Z,4.50
2018-05-25T12:52:02.615Z,3.80
2018-05-25T12:54:31.600Z,5.00
2018-05-25T12:56:59.819Z,4.70
2018-05-25T12:59:28.075Z,4.00
2018-05-25T13:01:57.079Z,4.50
2018-05-25T13:04:25.298Z,4.20
2018-05-25T13:06:53.560Z,4.80
2018-05-25T13:09:21.788Z,4.43
2018-05-25T13:11:50.768Z,4.77
2018-05-25T13:14:19.029Z,4.20
2018-05-25T13:16:47.243Z,4.47
2018-05-25T13:19:15.455Z,4.40
2018-05-25T13:21:43.892Z,4.27
2018-05-25T13:24:12.074Z,5.23
2018-05-25T13:26:41.063Z,4.23
2018-05-25T13:29:09.294Z,5.13
2018-05-25T13:31:37.524Z,5.70
2018-05-25T13:34:05.738Z,4.47
2018-05-25T13:36:33.976Z,5.10
2018-05-25T13:39:02.200Z,4.43
2018-05-25T13:41:30.410Z,4.77
2018-05-25T13:43:59.431Z,4.77
2018-05-25T13:46:27.648Z,4.50
2018-05-25T13:48:55.867Z,4.73
2018-05-25T13:51:24.124Z,7.27
2018-05-25T13:53:53.116Z,6.20
2018-05-25T13:56:21.337Z,4.33
2018-05-25T13:58:49.588Z,4.63
2018-05-25T14:01:17.798Z,4.37
2018-05-25T14:03:46.014Z,4.43
2018-05-25T14:06:14.242Z,5.63
2018-05-25T14:08:42.479Z,5.53
2018-05-25T14:11:11.499Z,5.70
2018-05-25T14:13:40.742Z,4.30
2018-05-25T14:16:08.964Z,4.57
2018-05-25T14:18:37.224Z,4.57
2018-05-25T14:21:06.203Z,4.33
2018-05-25T14:23:34.427Z,3.87
2018-05-25T14:26:02.979Z,5.27
2018-05-25T14:28:31.197Z,4.97
2018-05-25T14:30:59.426Z,9.10
2018-05-25T14:33:28.418Z,5.67
2018-05-25T14:35:56.639Z,4.17
2018-05-25T14:38:24.864Z,4.63
2018-05-25T14:40:53.886Z,4.43
2018-05-25T14:43:22.103Z,4.77
2018-05-25T14:45:50.332Z,4.37
2018-05-25T14:48:18.589Z,4.43
2018-05-25T14:50:47.570Z,4.23
2018-05-25T14:53:15.791Z,4.50
2018-05-25T14:55:44.023Z,4.30
2018-05-25T14:58:12.249Z,4.33
2018-05-25T15:00:40.770Z,3.70
2018-05-25T15:03:08.983Z,3.43
2018-05-25T15:05:37.203Z,3.87
2018-05-25T15:08:05.464Z,4.10
2018-05-25T15:10:33.674Z,3.67
2018-05-25T15:13:01.904Z,4.37
2018-05-25T15:15:30.135Z,4.20
2018-05-25T15:17:58.351Z,3.93
2018-05-25T15:20:26.574Z,3.50
2018-05-25T15:22:54.795Z,3.60
2018-05-25T15:25:23.046Z,3.77
2018-05-25T15:27:51.263Z,3.93
2018-05-25T15:30:19.479Z,3.90
2018-05-25T15:32:47.732Z,4.63
2018-05-25T15:35:15.939Z,6.00
2018-05-25T15:37:44.175Z,5.00
2018-05-25T15:40:12.418Z,4.97
2018-05-25T15:42:40.637Z,4.10
2018-05-25T15:45:08.863Z,4.90
2018-05-25T15:47:37.110Z,5.70
2018-05-25T15:50:05.327Z,5.70
2018-05-25T15:52:33.636Z,4.30
2018-05-25T15:55:01.881Z,4.73
2018-05-25T15:57:30.096Z,4.30
2018-05-25T15:59:58.306Z,4.23
2018-05-25T16:02:26.600Z,4.83
2018-05-25T16:04:54.779Z,5.43
2018-05-25T16:07:22.995Z,4.00
2018-05-25T16:09:51.241Z,5.43
2018-05-25T16:12:19.458Z,4.43
2018-05-25T16:14:47.689Z,4.33
2018-05-25T16:17:15.947Z,4.57
2018-05-25T16:19:44.944Z,5.30
2018-05-25T16:22:13.147Z,5.50
2018-05-25T16:24:41.398Z,5.80
2018-05-25T16:27:09.623Z,4.87
2018-05-25T16:29:37.844Z,4.20
2018-05-25T16:32:06.099Z,4.40
2018-05-25T16:34:34.327Z,4.50
2018-05-25T16:37:02.539Z,5.40
2018-05-25T16:39:30.823Z,5.40
2018-05-25T16:41:59.049Z,6.30
2018-05-25T16:44:27.289Z,5.60
2018-05-25T16:46:55.542Z,6.40
2018-05-25T16:49:23.767Z,8.20
2018-05-25T16:51:51.999Z,7.07
2018-05-25T16:54:20.259Z,8.60
2018-05-25T16:56:48.480Z,5.47
2018-05-25T16:59:16.703Z,6.00
2018-05-25T17:01:44.939Z,4.93
2018-05-25T17:04:13.167Z,5.93
2018-05-25T17:06:41.392Z,4.73
2018-05-25T17:09:09.735Z,4.10
2018-05-25T17:11:37.955Z,4.50
2018-05-25T17:14:06.168Z,4.90
2018-05-25T17:16:34.427Z,4.60
2018-05-25T17:19:02.651Z,4.47
2018-05-25T17:21:31.634Z,4.67
2018-05-25T17:23:59.907Z,4.47
2018-05-25T17:26:28.115Z,4.23
2018-05-25T17:28:56.339Z,4.70
2018-05-25T17:31:24.645Z,4.30
2018-05-25T17:33:52.814Z,4.93
2018-05-25T17:36:21.039Z,4.83
2018-05-25T17:38:49.288Z,3.80
2018-05-25T17:41:17.519Z,4.97
2018-05-25T17:43:45.734Z,3.97
2018-05-25T17:46:13.987Z,4.80
2018-05-25T17:48:42.203Z,4.30
2018-05-25T17:51:10.427Z,4.60
2018-05-25T17:53:38.679Z,4.53
2018-05-25T17:56:06.907Z,4.57
2018-05-25T17:58:35.122Z,4.80
2018-05-25T18:01:03.375Z,4.70
2018-05-25T18:03:31.587Z,4.93
2018-05-25T18:05:59.811Z,4.57
2018-05-25T18:08:28.066Z,4.63
2018-05-25T18:10:56.291Z,4.73
2018-05-25T18:13:24.515Z,4.87
2018-05-25T18:15:52.770Z,4.57
2018-05-25T18:18:20.992Z,4.93
2018-05-25T18:20:49.207Z,5.00
2018-05-25T18:23:17.467Z,4.70
2018-05-25T18:25:45.688Z,5.73
2018-05-25T18:28:13.911Z,4.20
2018-05-25T18:30:42.147Z,4.63
2018-05-25T18:33:10.374Z,4.70
2018-05-25T18:35:38.599Z,5.50
2018-05-25T18:38:06.859Z,4.60
2018-05-25T18:40:35.081Z,3.73
2018-05-25T18:43:03.299Z,5.00
2018-05-25T18:45:31.559Z,5.90
2018-05-25T18:47:59.779Z,6.00
2018-05-25T18:50:27.999Z,5.40
2018-05-25T18:52:56.267Z,5.20
2018-05-25T18:55:24.496Z,5.10
2018-05-25T18:57:52.723Z,6.27
2018-05-25T19:00:20.975Z,5.30
2018-05-25T19:02:49.963Z,5.10
2018-05-25T19:05:18.183Z,5.33
2018-05-25T19:07:46.440Z,5.40
2018-05-25T19:10:14.660Z,5.10
2018-05-25T19:12:42.880Z,5.07
2018-05-25T19:15:11.139Z,5.00
2018-05-25T19:17:39.366Z,4.57
2018-05-25T19:20:07.588Z,4.10
2018-05-25T19:22:35.831Z,4.47
2018-05-25T19:25:04.061Z,4.60
2018-05-25T19:27:32.275Z,4.50
2018-05-25T19:30:00.539Z,4.63
2018-05-25T19:32:28.778Z,5.37
2018-05-25T19:34:56.981Z,4.27
2018-05-25T19:37:25.230Z,4.50
2018-05-25T19:39:53.454Z,5.80
2018-05-25T19:42:21.674Z,7.13
2018-05-25T19:44:50.714Z,4.53
2018-05-25T19:47:18.932Z,5.20
2018-05-25T19:49:47.151Z,4.30
2018-05-25T19:52:15.390Z,5.23
2018-05-25T19:54:43.624Z,5.03
2018-05-25T19:57:11.844Z,4.30
2018-05-25T19:59:40.075Z,4.57
2018-05-25T20:02:08.304Z,4.30
2018-05-25T20:04:37.299Z,4.60
2018-05-25T20:07:05.523Z,5.13
2018-05-25T20:09:33.836Z,4.40
2018-05-25T20:12:02.016Z,5.33
2018-05-25T20:14:30.243Z,4.90
2018-05-25T20:16:58.512Z,5.40
2018-05-25T20:19:26.737Z,5.27
2018-05-25T20:21:54.948Z,5.00
2018-05-25T20:24:23.218Z,4.90
2018-05-25T20:26:52.201Z,5.20
2018-05-25T20:29:20.436Z,5.13
2018-05-25T20:31:48.679Z,5.80
2018-05-25T20:34:16.914Z,7.37
2018-05-25T20:36:45.135Z,5.40
2018-05-25T20:39:13.366Z,5.70
2018-05-25T20:41:41.587Z,5.80
2018-05-25T20:44:10.580Z,5.80
2018-05-25T20:46:38.810Z,6.10
2018-05-25T20:49:07.031Z,6.30
2018-05-25T20:51:35.255Z,5.83
2018-05-25T20:54:03.483Z,6.27
2018-05-25T20:56:31.699Z,6.40
2018-05-25T20:58:59.931Z,5.47
2018-05-25T21:01:28.147Z,6.40
2018-05-25T21:03:56.388Z,5.87
2018-05-25T21:06:25.367Z,6.40
2018-05-25T21:08:53.607Z,5.73
2018-05-25T21:11:21.859Z,5.33
2018-05-25T21:13:50.083Z,6.27
2018-05-25T21:16:18.308Z,6.10
2018-05-25T21:18:46.567Z,5.90
2018-05-25T21:21:14.783Z,5.87
2018-05-25T21:23:43.007Z,6.47
2018-05-25T21:26:11.259Z,6.03
2018-05-25T21:28:39.474Z,6.70
2018-05-25T21:31:07.707Z,6.90
2018-05-25T21:33:36.719Z,5.50
2018-05-25T21:36:04.935Z,6.20
2018-05-25T21:38:33.158Z,5.43
2018-05-25T21:41:02.164Z,6.07
2018-05-25T21:43:30.383Z,6.23
2018-05-25T21:45:58.598Z,6.27
2018-05-25T21:48:27.648Z,6.30
2018-05-25T21:50:55.879Z,6.20
2018-05-25T21:53:24.094Z,6.13
2018-05-25T21:55:52.335Z,6.40
2018-05-25T21:58:20.559Z,6.30
2018-05-25T22:00:48.770Z,6.50
2018-05-25T22:03:17.039Z,7.60
2018-05-25T22:05:45.262Z,7.40
2018-05-25T22:08:13.491Z,6.23
2018-05-25T22:10:42.511Z,6.80
2018-05-25T22:13:11.503Z,7.97
2018-05-25T22:15:39.719Z,7.37
2018-05-25T22:18:08.163Z,7.83
2018-05-25T22:20:36.385Z,7.10
2018-05-25T22:23:04.603Z,7.33
2018-05-25T22:25:32.971Z,7.70
2018-05-25T22:28:01.196Z,6.87
2018-05-25T22:30:29.429Z,8.00
2018-05-25T22:32:58.426Z,8.40
2018-05-25T22:35:26.644Z,7.83
2018-05-25T22:37:54.894Z,8.53
2018-05-25T22:40:23.156Z,9.00
2018-05-25T22:43:08.815Z,7.80
2018-05-25T22:45:55.360Z,7.90
2018-05-25T22:48:41.267Z,7.07
2018-05-25T22:51:27.123Z,8.03
2018-05-25T22:54:00.075Z,7.63
2018-05-25T22:56:28.355Z,6.73
2018-05-25T22:58:56.536Z,7.83
2018-05-25T23:01:24.759Z,7.70
2018-05-25T23:03:53.015Z,8.93
2018-05-25T23:06:21.235Z,8.40
2018-05-25T23:08:49.463Z,9.20
2018-05-25T23:11:17.699Z,8.43
2018-05-25T23:13:45.919Z,8.93
2018-05-25T23:16:14.144Z,8.83
2018-05-25T23:18:42.414Z,8.13
2018-05-25T23:21:10.627Z,8.33
2018-05-25T23:23:38.852Z,7.53
2018-05-25T23:26:07.107Z,7.93
2018-05-25T23:28:35.336Z,9.33
2018-05-25T23:31:03.569Z,10.03
2018-05-25T23:33:31.808Z,10.13
2018-05-25T23:36:00.031Z,10.00
2018-05-25T23:38:28.260Z,8.20
2018-05-25T23:40:57.264Z,8.90
2018-05-25T23:43:25.492Z,9.47
2018-05-25T23:45:53.711Z,8.83
2018-05-25T23:48:22.733Z,9.90
2018-05-25T23:50:50.954Z,10.30
2018-05-25T23:53:19.171Z,11.13
2018-05-25T23:55:47.411Z,8.57
2018-05-25T23:58:15.627Z,10.57
